sensor_id;sensor_type;location;lat;lon;timestamp;pressure;altitude;pressure_sealevel;temperature;humidity
8585;BME280;7180;52.742;11.420;2024-02-15T00:01:25;77265.41;;;-142.35;84.46
8585;BME280;7180;52.742;11.420;2024-02-15T00:03:51;77255.34;;;-142.35;84.66
8585;BME280;7180;52.742;11.420;2024-02-15T00:06:16;77269.44;;;-142.35;84.99
8585;BME280;7180;52.742;11.420;2024-02-15T00:08:41;77281.56;;;-142.35;85.22
8585;BME280;7180;52.742;11.420;2024-02-15T00:11:06;77271.47;;;-142.35;85.07
8585;BME280;7180;52.742;11.420;2024-02-15T00:13:34;77265.41;;;-142.35;85.32
8585;BME280;7180;52.742;11.420;2024-02-15T00:16:00;77257.34;;;-142.35;85.16
8585;BME280;7180;52.742;11.420;2024-02-15T00:18:26;77277.53;;;-142.35;84.76
8585;BME280;7180;52.742;11.420;2024-02-15T00:20:51;77287.59;;;-142.35;85.28
8585;BME280;7180;52.742;11.420;2024-02-15T00:23:16;77269.44;;;-142.35;85.26
8585;BME280;7180;52.742;11.420;2024-02-15T00:25:42;77281.56;;;-142.35;85.59
8585;BME280;7180;52.742;11.420;2024-02-15T00:28:09;77293.66;;;-142.35;85.90
8585;BME280;7180;52.742;11.420;2024-02-15T00:30:35;77267.44;;;-142.35;85.86
8585;BME280;7180;52.742;11.420;2024-02-15T00:33:01;77249.28;;;-142.35;85.72
8585;BME280;7180;52.742;11.420;2024-02-15T00:35:28;77277.53;;;-142.35;85.36
8585;BME280;7180;52.742;11.420;2024-02-15T00:37:53;77261.38;;;-142.35;85.64
8585;BME280;7180;52.742;11.420;2024-02-15T00:40:18;77255.34;;;-142.35;85.57
8585;BME280;7180;52.742;11.420;2024-02-15T00:42:46;77237.19;;;-142.35;85.27
8585;BME280;7180;52.742;11.420;2024-02-15T00:45:11;77243.25;;;-142.35;85.45
8585;BME280;7180;52.742;11.420;2024-02-15T00:47:37;77253.31;;;-142.35;85.56
8585;BME280;7180;52.742;11.420;2024-02-15T00:50:08;77261.38;;;-142.35;85.44
8585;BME280;7180;52.742;11.420;2024-02-15T00:52:33;77261.38;;;-142.35;85.46
8585;BME280;7180;52.742;11.420;2024-02-15T00:54:59;77275.50;;;-142.35;85.56
8585;BME280;7180;52.742;11.420;2024-02-15T00:57:24;77267.44;;;-142.35;86.15
8585;BME280;7180;52.742;11.420;2024-02-15T00:59:49;77295.66;;;-142.35;86.44
8585;BME280;7180;52.742;11.420;2024-02-15T01:02:14;77289.63;;;-142.35;86.39
8585;BME280;7180;52.742;11.420;2024-02-15T01:04:40;77271.47;;;-142.35;86.25
8585;BME280;7180;52.742;11.420;2024-02-15T01:07:07;77265.41;;;-142.35;86.10
8585;BME280;7180;52.742;11.420;2024-02-15T01:09:33;77261.38;;;-142.35;86.03
8585;BME280;7180;52.742;11.420;2024-02-15T01:11:58;77261.38;;;-142.35;86.17
8585;BME280;7180;52.742;11.420;2024-02-15T01:14:23;77255.34;;;-142.35;86.40
8585;BME280;7180;52.742;11.420;2024-02-15T01:16:49;77265.41;;;-142.35;86.13
8585;BME280;7180;52.742;11.420;2024-02-15T01:19:14;77261.38;;;-142.35;86.23
8585;BME280;7180;52.742;11.420;2024-02-15T01:21:39;77249.28;;;-142.35;85.98
8585;BME280;7180;52.742;11.420;2024-02-15T01:24:04;77243.25;;;-142.35;85.99
8585;BME280;7180;52.742;11.420;2024-02-15T01:26:31;77245.25;;;-142.35;86.30
8585;BME280;7180;52.742;11.420;2024-02-15T01:28:57;77229.13;;;-142.35;85.59
8585;BME280;7180;52.742;11.420;2024-02-15T01:31:22;77243.25;;;-142.35;85.50
8585;BME280;7180;52.742;11.420;2024-02-15T01:33:48;77227.13;;;-142.35;86.05
8585;BME280;7180;52.742;11.420;2024-02-15T01:36:14;77221.06;;;-142.35;85.76
8585;BME280;7180;52.742;11.420;2024-02-15T01:38:40;77221.06;;;-142.35;85.46
8585;BME280;7180;52.742;11.420;2024-02-15T01:41:05;77217.03;;;-142.35;85.55
8585;BME280;7180;52.742;11.420;2024-02-15T01:43:31;77208.97;;;-142.35;85.26
8585;BME280;7180;52.742;11.420;2024-02-15T01:45:56;77206.94;;;-142.35;85.28
8585;BME280;7180;52.742;11.420;2024-02-15T01:48:24;77208.97;;;-142.35;85.35
8585;BME280;7180;52.742;11.420;2024-02-15T01:50:49;77196.88;;;-142.35;85.35
8585;BME280;7180;52.742;11.420;2024-02-15T01:53:16;77188.81;;;-142.35;84.96
8585;BME280;7180;52.742;11.420;2024-02-15T01:55:42;77227.13;;;-142.35;85.08
8585;BME280;7180;52.742;11.420;2024-02-15T01:58:08;77225.09;;;-142.35;85.67
8585;BME280;7180;52.742;11.420;2024-02-15T02:00:34;77229.13;;;-142.35;86.05
8585;BME280;7180;52.742;11.420;2024-02-15T02:03:02;77200.91;;;-142.35;85.98
8585;BME280;7180;52.742;11.420;2024-02-15T02:05:27;77208.97;;;-142.35;85.71
8585;BME280;7180;52.742;11.420;2024-02-15T02:07:54;77196.88;;;-142.35;85.58
8585;BME280;7180;52.742;11.420;2024-02-15T02:10:24;77190.81;;;-142.35;85.72
8585;BME280;7180;52.742;11.420;2024-02-15T02:12:49;77172.69;;;-142.35;85.25
8585;BME280;7180;52.742;11.420;2024-02-15T02:15:15;77182.75;;;-142.35;85.16
8585;BME280;7180;52.742;11.420;2024-02-15T02:17:41;77174.69;;;-142.35;85.12
8585;BME280;7180;52.742;11.420;2024-02-15T02:20:06;77204.94;;;-142.35;85.04
8585;BME280;7180;52.742;11.420;2024-02-15T02:22:34;77202.91;;;-142.35;85.57
8585;BME280;7180;52.742;11.420;2024-02-15T02:25:06;77196.88;;;-142.35;85.37
8585;BME280;7180;52.742;11.420;2024-02-15T02:27:33;77180.75;;;-142.35;85.49
8585;BME280;7180;52.742;11.420;2024-02-15T02:29:59;77184.78;;;-142.35;85.40
8585;BME280;7180;52.742;11.420;2024-02-15T02:32:25;77182.75;;;-142.35;85.18
8585;BME280;7180;52.742;11.420;2024-02-15T02:34:51;77176.72;;;-142.35;85.06
8585;BME280;7180;52.742;11.420;2024-02-15T02:37:25;77180.75;;;-142.35;85.09
8585;BME280;7180;52.742;11.420;2024-02-15T02:39:50;77184.78;;;-142.35;85.28
8585;BME280;7180;52.742;11.420;2024-02-15T02:42:16;77196.88;;;-142.35;85.12
8585;BME280;7180;52.742;11.420;2024-02-15T02:44:41;77198.88;;;-142.35;85.51
8585;BME280;7180;52.742;11.420;2024-02-15T02:47:06;77184.78;;;-142.35;85.48
8585;BME280;7180;52.742;11.420;2024-02-15T02:49:31;77204.94;;;-142.35;85.65
8585;BME280;7180;52.742;11.420;2024-02-15T02:51:57;77200.91;;;-142.35;85.61
8585;BME280;7180;52.742;11.420;2024-02-15T02:54:22;77182.75;;;-142.35;85.52
8585;BME280;7180;52.742;11.420;2024-02-15T02:56:47;77178.72;;;-142.35;85.25
8585;BME280;7180;52.742;11.420;2024-02-15T02:59:13;77168.66;;;-142.35;85.13
8585;BME280;7180;52.742;11.420;2024-02-15T03:01:38;77176.72;;;-142.35;84.83
8585;BME280;7180;52.742;11.420;2024-02-15T03:04:05;77180.75;;;-142.35;85.27
8585;BME280;7180;52.742;11.420;2024-02-15T03:06:30;77180.75;;;-142.35;85.35
8585;BME280;7180;52.742;11.420;2024-02-15T03:08:55;77180.75;;;-142.35;85.03
8585;BME280;7180;52.742;11.420;2024-02-15T03:11:20;77176.72;;;-142.35;85.36
8585;BME280;7180;52.742;11.420;2024-02-15T03:13:46;77176.72;;;-142.35;85.06
8585;BME280;7180;52.742;11.420;2024-02-15T03:16:13;77176.72;;;-142.35;84.99
8585;BME280;7180;52.742;11.420;2024-02-15T03:18:38;77176.72;;;-142.35;85.08
8585;BME280;7180;52.742;11.420;2024-02-15T03:21:03;77176.72;;;-142.35;85.07
8585;BME280;7180;52.742;11.420;2024-02-15T03:23:29;77180.75;;;-142.35;84.87
8585;BME280;7180;52.742;11.420;2024-02-15T03:25:54;77192.84;;;-142.35;85.11
8585;BME280;7180;52.742;11.420;2024-02-15T03:28:20;77194.84;;;-142.35;85.13
8585;BME280;7180;52.742;11.420;2024-02-15T03:30:46;77182.75;;;-142.35;85.21
8585;BME280;7180;52.742;11.420;2024-02-15T03:33:12;77188.81;;;-142.35;84.80
8585;BME280;7180;52.742;11.420;2024-02-15T03:35:38;77194.84;;;-142.35;85.13
8585;BME280;7180;52.742;11.420;2024-02-15T03:38:04;77190.81;;;-142.35;85.23
8585;BME280;7180;52.742;11.420;2024-02-15T03:40:29;77172.69;;;-142.35;85.18
8585;BME280;7180;52.742;11.420;2024-02-15T03:42:55;77168.66;;;-142.35;84.87
8585;BME280;7180;52.742;11.420;2024-02-15T03:45:22;77160.59;;;-142.35;84.52
8585;BME280;7180;52.742;11.420;2024-02-15T03:47:53;77164.63;;;-142.35;84.51
8585;BME280;7180;52.742;11.420;2024-02-15T03:50:19;77180.75;;;-142.35;84.56
8585;BME280;7180;52.742;11.420;2024-02-15T03:52:46;77180.75;;;-142.35;84.58
8585;BME280;7180;52.742;11.420;2024-02-15T03:55:11;77176.72;;;-142.35;84.86
8585;BME280;7180;52.742;11.420;2024-02-15T03:57:40;77172.69;;;-142.35;84.96
8585;BME280;7180;52.742;11.420;2024-02-15T04:00:07;77184.78;;;-142.35;84.86
8585;BME280;7180;52.742;11.420;2024-02-15T04:02:33;77180.75;;;-142.35;84.82
8585;BME280;7180;52.742;11.420;2024-02-15T04:05:00;77182.75;;;-142.35;84.92
8585;BME280;7180;52.742;11.420;2024-02-15T04:07:26;77190.81;;;-142.35;85.26
8585;BME280;7180;52.742;11.420;2024-02-15T04:09:52;77196.88;;;-142.35;85.31
8585;BME280;7180;52.742;11.420;2024-02-15T04:12:17;77202.91;;;-142.35;85.23
8585;BME280;7180;52.742;11.420;2024-02-15T04:14:46;77213.00;;;-142.35;85.32
8585;BME280;7180;52.742;11.420;2024-02-15T04:17:12;77213.00;;;-142.35;85.43
8585;BME280;7180;52.742;11.420;2024-02-15T04:19:47;77217.03;;;-142.35;85.33
8585;BME280;7180;52.742;11.420;2024-02-15T04:22:13;77221.06;;;-142.35;85.80
8585;BME280;7180;52.742;11.420;2024-02-15T04:24:41;77219.03;;;-142.35;85.64
8585;BME280;7180;52.742;11.420;2024-02-15T04:27:06;77210.97;;;-142.35;85.74
8585;BME280;7180;52.742;11.420;2024-02-15T04:29:33;77196.88;;;-142.35;85.67
8585;BME280;7180;52.742;11.420;2024-02-15T04:31:59;77196.88;;;-142.35;85.08
8585;BME280;7180;52.742;11.420;2024-02-15T04:34:24;77188.81;;;-142.35;85.12
8585;BME280;7180;52.742;11.420;2024-02-15T04:36:49;77180.75;;;-142.35;84.87
8585;BME280;7180;52.742;11.420;2024-02-15T04:39:16;77184.78;;;-142.35;85.00
8585;BME280;7180;52.742;11.420;2024-02-15T04:41:52;77170.66;;;-142.35;84.83
8585;BME280;7180;52.742;11.420;2024-02-15T04:44:18;77168.66;;;-142.35;84.42
8585;BME280;7180;52.742;11.420;2024-02-15T04:46:46;77198.88;;;-142.35;84.62
8585;BME280;7180;52.742;11.420;2024-02-15T04:49:12;77186.78;;;-142.35;84.75
8585;BME280;7180;52.742;11.420;2024-02-15T04:51:38;77182.75;;;-142.35;85.11
8585;BME280;7180;52.742;11.420;2024-02-15T04:54:04;77172.69;;;-142.35;84.77
8585;BME280;7180;52.742;11.420;2024-02-15T04:56:32;77168.66;;;-142.35;84.44
8585;BME280;7180;52.742;11.420;2024-02-15T04:58:58;77152.50;;;-142.35;84.49
8585;BME280;7180;52.742;11.420;2024-02-15T05:01:23;77148.47;;;-142.35;84.02
8585;BME280;7180;52.742;11.420;2024-02-15T05:03:48;77144.44;;;-142.35;83.81
8585;BME280;7180;52.742;11.420;2024-02-15T05:06:14;77148.47;;;-142.35;83.97
8585;BME280;7180;52.742;11.420;2024-02-15T05:08:39;77148.47;;;-142.35;83.81
8585;BME280;7180;52.742;11.420;2024-02-15T05:11:11;77134.38;;;-142.35;84.02
8585;BME280;7180;52.742;11.420;2024-02-15T05:13:43;77148.47;;;-142.35;83.57
8585;BME280;7180;52.742;11.420;2024-02-15T05:16:09;77156.56;;;-142.35;83.98
8585;BME280;7180;52.742;11.420;2024-02-15T05:18:35;77162.59;;;-142.35;84.09
8585;BME280;7180;52.742;11.420;2024-02-15T05:21:01;77162.59;;;-142.35;84.29
8585;BME280;7180;52.742;11.420;2024-02-15T05:23:26;77152.50;;;-142.35;84.13
8585;BME280;7180;52.742;11.420;2024-02-15T05:25:52;77160.59;;;-142.35;83.98
8585;BME280;7180;52.742;11.420;2024-02-15T05:28:19;77152.50;;;-142.35;84.06
8585;BME280;7180;52.742;11.420;2024-02-15T05:30:45;77154.53;;;-142.35;84.16
8585;BME280;7180;52.742;11.420;2024-02-15T05:33:11;77168.66;;;-142.35;84.04
8585;BME280;7180;52.742;11.420;2024-02-15T05:35:36;77162.59;;;-142.35;84.46
8585;BME280;7180;52.742;11.420;2024-02-15T05:38:04;77150.50;;;-142.35;84.34
8585;BME280;7180;52.742;11.420;2024-02-15T05:40:31;77138.41;;;-142.35;83.93
8585;BME280;7180;52.742;11.420;2024-02-15T05:42:57;77148.47;;;-142.35;84.10
8585;BME280;7180;52.742;11.420;2024-02-15T05:47:50;77152.50;;;-142.35;83.79
8585;BME280;7180;52.742;11.420;2024-02-15T05:50:15;77168.66;;;-142.35;83.89
8585;BME280;7180;52.742;11.420;2024-02-15T05:52:40;77160.59;;;-142.35;84.09
8585;BME280;7180;52.742;11.420;2024-02-15T05:55:06;77144.44;;;-142.35;83.71
8585;BME280;7180;52.742;11.420;2024-02-15T05:57:31;77130.34;;;-142.35;83.56
8585;BME280;7180;52.742;11.420;2024-02-15T05:59:57;77134.38;;;-142.35;83.64
8585;BME280;7180;52.742;11.420;2024-02-15T06:02:27;77136.38;;;-142.35;83.82
8585;BME280;7180;52.742;11.420;2024-02-15T06:04:52;77144.44;;;-142.35;83.45
8585;BME280;7180;52.742;11.420;2024-02-15T06:07:18;77144.44;;;-142.35;83.66
8585;BME280;7180;52.742;11.420;2024-02-15T06:09:44;77132.34;;;-142.35;83.52
8585;BME280;7180;52.742;11.420;2024-02-15T06:12:09;77112.19;;;-142.35;83.07
8585;BME280;7180;52.742;11.420;2024-02-15T06:14:34;77104.13;;;-142.35;82.85
8585;BME280;7180;52.742;11.420;2024-02-15T06:16:59;77104.13;;;-142.35;82.63
8585;BME280;7180;52.742;11.420;2024-02-15T06:19:25;77088.00;;;-142.35;82.30
8585;BME280;7180;52.742;11.420;2024-02-15T06:21:50;77096.06;;;-142.35;82.16
8585;BME280;7180;52.742;11.420;2024-02-15T06:24:15;77102.13;;;-142.35;82.22
8585;BME280;7180;52.742;11.420;2024-02-15T06:26:40;77110.19;;;-142.35;82.35
8585;BME280;7180;52.742;11.420;2024-02-15T06:29:07;77132.34;;;-142.35;82.67
8585;BME280;7180;52.742;11.420;2024-02-15T06:31:50;77124.28;;;-142.35;82.81
8585;BME280;7180;52.742;11.420;2024-02-15T06:34:34;77136.38;;;-142.35;83.06
8585;BME280;7180;52.742;11.420;2024-02-15T06:37:38;77128.31;;;-142.35;83.31
8585;BME280;7180;52.742;11.420;2024-02-15T06:40:23;77122.28;;;-142.35;82.99
8585;BME280;7180;52.742;11.420;2024-02-15T06:42:49;77116.22;;;-142.35;82.57
8585;BME280;7180;52.742;11.420;2024-02-15T06:45:14;77112.19;;;-142.35;82.41
8585;BME280;7180;52.742;11.420;2024-02-15T06:47:43;77124.28;;;-142.35;82.55
8585;BME280;7180;52.742;11.420;2024-02-15T06:50:12;77128.31;;;-142.35;83.09
8585;BME280;7180;52.742;11.420;2024-02-15T06:52:40;77146.47;;;-142.35;83.25
8585;BME280;7180;52.742;11.420;2024-02-15T06:55:07;77138.41;;;-142.35;83.42
8585;BME280;7180;52.742;11.420;2024-02-15T06:57:33;77132.34;;;-142.35;83.44
8585;BME280;7180;52.742;11.420;2024-02-15T07:00:01;77124.28;;;-142.35;83.32
8585;BME280;7180;52.742;11.420;2024-02-15T07:02:26;77106.16;;;-142.35;82.75
8585;BME280;7180;52.742;11.420;2024-02-15T07:04:52;77104.13;;;-142.35;82.32
8585;BME280;7180;52.742;11.420;2024-02-15T07:07:17;77112.19;;;-142.35;82.72
8585;BME280;7180;52.742;11.420;2024-02-15T07:09:42;77132.34;;;-142.35;82.81
8585;BME280;7180;52.742;11.420;2024-02-15T07:12:08;77132.34;;;-142.35;83.09
8585;BME280;7180;52.742;11.420;2024-02-15T07:14:33;77140.41;;;-142.35;83.38
8585;BME280;7180;52.742;11.420;2024-02-15T07:16:59;77144.44;;;-142.35;83.35
8585;BME280;7180;52.742;11.420;2024-02-15T07:19:24;77124.28;;;-142.35;83.42
8585;BME280;7180;52.742;11.420;2024-02-15T07:21:52;77136.38;;;-142.35;83.22
8585;BME280;7180;52.742;11.420;2024-02-15T07:24:17;77136.38;;;-142.35;83.42
8585;BME280;7180;52.742;11.420;2024-02-15T07:26:42;77132.34;;;-142.35;83.39
8585;BME280;7180;52.742;11.420;2024-02-15T07:29:08;77124.28;;;-142.35;83.47
8585;BME280;7180;52.742;11.420;2024-02-15T07:31:33;77120.25;;;-142.35;83.22
8585;BME280;7180;52.742;11.420;2024-02-15T07:33:59;77110.19;;;-142.35;83.15
8585;BME280;7180;52.742;11.420;2024-02-15T07:36:25;77100.09;;;-142.35;82.85
8585;BME280;7180;52.742;11.420;2024-02-15T07:38:51;77090.00;;;-142.35;82.44
8585;BME280;7180;52.742;11.420;2024-02-15T07:41:18;77065.81;;;-142.35;81.81
8585;BME280;7180;52.742;11.420;2024-02-15T07:43:45;77065.81;;;-142.35;81.45
8585;BME280;7180;52.742;11.420;2024-02-15T07:46:12;77069.84;;;-142.35;81.70
8585;BME280;7180;52.742;11.420;2024-02-15T07:48:39;77075.91;;;-142.35;82.19
8585;BME280;7180;52.742;11.420;2024-02-15T07:51:04;77075.91;;;-142.35;81.93
8585;BME280;7180;52.742;11.420;2024-02-15T07:53:34;77092.03;;;-142.35;81.93
8585;BME280;7180;52.742;11.420;2024-02-15T07:56:00;77112.19;;;-142.35;82.76
8585;BME280;7180;52.742;11.420;2024-02-15T07:58:25;77130.34;;;-142.35;82.81
8585;BME280;7180;52.742;11.420;2024-02-15T08:00:50;77130.34;;;-142.35;83.07
8585;BME280;7180;52.742;11.420;2024-02-15T08:03:15;77154.53;;;-142.35;83.29
8585;BME280;7180;52.742;11.420;2024-02-15T08:05:41;77156.56;;;-142.35;83.23
8585;BME280;7180;52.742;11.420;2024-02-15T08:08:06;77152.50;;;-142.35;83.94
8585;BME280;7180;52.742;11.420;2024-02-15T08:10:31;77148.47;;;-142.35;83.32
8585;BME280;7180;52.742;11.420;2024-02-15T08:12:57;77144.44;;;-142.35;83.75
8585;BME280;7180;52.742;11.420;2024-02-15T08:15:23;77148.47;;;-142.35;83.52
8585;BME280;7180;52.742;11.420;2024-02-15T08:17:49;77138.41;;;-142.35;83.53
8585;BME280;7180;52.742;11.420;2024-02-15T08:20:15;77132.34;;;-142.35;82.97
8585;BME280;7180;52.742;11.420;2024-02-15T08:22:46;77132.34;;;-142.35;83.30
8585;BME280;7180;52.742;11.420;2024-02-15T08:25:13;77136.38;;;-142.35;83.26
8585;BME280;7180;52.742;11.420;2024-02-15T08:27:41;77114.22;;;-142.35;83.53
8585;BME280;7180;52.742;11.420;2024-02-15T08:30:09;77100.09;;;-142.35;83.34
8585;BME280;7180;52.742;11.420;2024-02-15T08:32:36;77075.91;;;-142.35;82.83
8585;BME280;7180;52.742;11.420;2024-02-15T08:35:01;77063.81;;;-142.35;82.28
8585;BME280;7180;52.742;11.420;2024-02-15T08:37:26;77063.81;;;-142.35;82.15
8585;BME280;7180;52.742;11.420;2024-02-15T08:39:52;77049.69;;;-142.35;81.83
8585;BME280;7180;52.742;11.420;2024-02-15T08:42:17;77045.66;;;-142.35;81.81
8585;BME280;7180;52.742;11.420;2024-02-15T08:44:47;77011.38;;;-142.35;81.59
8585;BME280;7180;52.742;11.420;2024-02-15T08:47:12;77011.38;;;-142.35;81.19
8585;BME280;7180;52.742;11.420;2024-02-15T08:49:38;77003.31;;;-142.35;80.87
8585;BME280;7180;52.742;11.420;2024-02-15T08:52:05;76987.19;;;-142.35;80.77
8585;BME280;7180;52.742;11.420;2024-02-15T08:54:33;76999.28;;;-142.35;80.50
8585;BME280;7180;52.742;11.420;2024-02-15T08:56:58;77003.31;;;-142.35;80.97
8585;BME280;7180;52.742;11.420;2024-02-15T08:59:23;76993.25;;;-142.35;80.87
8585;BME280;7180;52.742;11.420;2024-02-15T09:01:50;76991.22;;;-142.35;80.89
8585;BME280;7180;52.742;11.420;2024-02-15T09:04:15;77007.34;;;-142.35;80.36
8585;BME280;7180;52.742;11.420;2024-02-15T09:06:41;76983.16;;;-142.35;80.53
8585;BME280;7180;52.742;11.420;2024-02-15T09:09:08;76999.28;;;-142.35;80.64
8585;BME280;7180;52.742;11.420;2024-02-15T09:11:33;76995.25;;;-142.35;80.34
8585;BME280;7180;52.742;11.420;2024-02-15T09:13:59;76975.09;;;-142.35;80.52
8585;BME280;7180;52.742;11.420;2024-02-15T09:16:25;76965.03;;;-142.35;80.08
8585;BME280;7180;52.742;11.420;2024-02-15T09:18:50;76952.94;;;-142.35;80.05
8585;BME280;7180;52.742;11.420;2024-02-15T09:21:15;76963.00;;;-142.35;79.91
8585;BME280;7180;52.742;11.420;2024-02-15T09:23:41;76999.28;;;-142.35;80.21
8585;BME280;7180;52.742;11.420;2024-02-15T09:26:06;76995.25;;;-142.35;79.94
8585;BME280;7180;52.742;11.420;2024-02-15T09:28:33;76961.00;;;-142.35;79.85
8585;BME280;7180;52.742;11.420;2024-02-15T09:30:59;76965.03;;;-142.35;79.64
8585;BME280;7180;52.742;11.420;2024-02-15T09:33:24;76969.06;;;-142.35;79.58
8585;BME280;7180;52.742;11.420;2024-02-15T09:35:51;76930.75;;;-142.35;79.29
8585;BME280;7180;52.742;11.420;2024-02-15T09:38:16;76906.56;;;-142.35;78.78
8585;BME280;7180;52.742;11.420;2024-02-15T09:40:42;76878.34;;;-142.35;78.26
8585;BME280;7180;52.742;11.420;2024-02-15T09:43:09;76914.63;;;-142.35;78.11
8585;BME280;7180;52.742;11.420;2024-02-15T09:45:34;76910.59;;;-142.35;78.58
8585;BME280;7180;52.742;11.420;2024-02-15T09:48:05;76874.31;;;-142.35;78.16
8585;BME280;7180;52.742;11.420;2024-02-15T09:50:34;76890.44;;;-142.35;78.01
8585;BME280;7180;52.742;11.420;2024-02-15T09:53:00;76890.44;;;-142.35;78.04
8585;BME280;7180;52.742;11.420;2024-02-15T09:55:27;76908.56;;;-142.35;78.22
8585;BME280;7180;52.742;11.420;2024-02-15T09:57:54;76906.56;;;-142.35;77.93
8585;BME280;7180;52.742;11.420;2024-02-15T10:00:19;76902.53;;;-142.35;78.64
8585;BME280;7180;52.742;11.420;2024-02-15T10:02:52;76884.38;;;-142.35;78.44
8585;BME280;7180;52.742;11.420;2024-02-15T10:05:18;76884.38;;;-142.35;78.31
8585;BME280;7180;52.742;11.420;2024-02-15T10:07:45;76864.22;;;-142.35;78.31
8585;BME280;7180;52.742;11.420;2024-02-15T10:10:14;76856.16;;;-142.35;77.67
8585;BME280;7180;52.742;11.420;2024-02-15T10:12:41;76819.88;;;-142.35;77.84
8585;BME280;7180;52.742;11.420;2024-02-15T10:15:08;76821.88;;;-142.35;77.63
8585;BME280;7180;52.742;11.420;2024-02-15T10:17:34;76785.59;;;-142.35;76.87
8585;BME280;7180;52.742;11.420;2024-02-15T10:20:05;76773.50;;;-142.35;76.44
8585;BME280;7180;52.742;11.420;2024-02-15T10:22:31;76793.66;;;-142.35;76.48
8585;BME280;7180;52.742;11.420;2024-02-15T10:25:10;76785.59;;;-142.35;76.66
8585;BME280;7180;52.742;11.420;2024-02-15T10:27:36;76741.25;;;-142.35;76.74
8585;BME280;7180;52.742;11.420;2024-02-15T10:30:17;76717.06;;;-142.35;75.71
8585;BME280;7180;52.742;11.420;2024-02-15T10:32:43;76664.66;;;-142.35;75.39
8585;BME280;7180;52.742;11.420;2024-02-15T10:35:09;76636.44;;;-142.35;74.59
8585;BME280;7180;52.742;11.420;2024-02-15T10:37:35;76594.09;;;-142.35;73.86
8585;BME280;7180;52.742;11.420;2024-02-15T10:40:04;76598.13;;;-142.35;73.45
8585;BME280;7180;52.742;11.420;2024-02-15T10:42:32;76596.13;;;-142.35;73.74
8585;BME280;7180;52.742;11.420;2024-02-15T10:45:01;76586.03;;;-142.35;73.55
8585;BME280;7180;52.742;11.420;2024-02-15T10:47:30;76616.28;;;-142.35;73.72
8585;BME280;7180;52.742;11.420;2024-02-15T10:49:55;76628.38;;;-142.35;73.81
8585;BME280;7180;52.742;11.420;2024-02-15T10:52:22;76610.22;;;-142.35;73.73
8585;BME280;7180;52.742;11.420;2024-02-15T10:55:01;76579.97;;;-142.35;73.08
8585;BME280;7180;52.742;11.420;2024-02-15T10:57:31;76559.81;;;-142.35;72.98
8585;BME280;7180;52.742;11.420;2024-02-15T10:59:59;76551.75;;;-142.35;72.16
8585;BME280;7180;52.742;11.420;2024-02-15T11:02:30;76563.84;;;-142.35;72.46
8585;BME280;7180;52.742;11.420;2024-02-15T11:05:01;76551.75;;;-142.35;72.31
8585;BME280;7180;52.742;11.420;2024-02-15T11:07:29;76555.78;;;-142.35;72.35
8585;BME280;7180;52.742;11.420;2024-02-15T11:09:55;76527.56;;;-142.35;72.00
8585;BME280;7180;52.742;11.420;2024-02-15T11:12:22;76539.66;;;-142.35;71.89
8585;BME280;7180;52.742;11.420;2024-02-15T11:14:48;76563.84;;;-142.35;72.36
8585;BME280;7180;52.742;11.420;2024-02-15T11:20:06;76503.38;;;-142.35;71.57
8585;BME280;7180;52.742;11.420;2024-02-15T11:22:39;76450.97;;;-142.35;71.37
8585;BME280;7180;52.742;11.420;2024-02-15T11:25:05;76430.81;;;-142.35;70.59
8585;BME280;7180;52.742;11.420;2024-02-15T11:27:34;76402.59;;;-142.35;70.70
8585;BME280;7180;52.742;11.420;2024-02-15T11:30:02;76352.22;;;-142.35;70.08
8585;BME280;7180;52.742;11.420;2024-02-15T11:32:45;76326.00;;;-142.35;69.79
8585;BME280;7180;52.742;11.420;2024-02-15T11:35:25;76237.31;;;-142.35;68.79
8585;BME280;7180;52.742;11.420;2024-02-15T11:40:16;76350.19;;;-142.35;69.25
8585;BME280;7180;52.742;11.420;2024-02-15T11:42:42;76346.16;;;-142.35;69.01
8585;BME280;7180;52.742;11.420;2024-02-15T11:45:08;76362.28;;;-142.35;69.13
8585;BME280;7180;52.742;11.420;2024-02-15T11:47:37;76360.28;;;-142.35;69.19
8585;BME280;7180;52.742;11.420;2024-02-15T11:50:03;76370.34;;;-142.35;69.10
8585;BME280;7180;52.742;11.420;2024-02-15T11:52:29;76378.41;;;-142.35;69.42
8585;BME280;7180;52.742;11.420;2024-02-15T11:55:04;76334.06;;;-142.35;68.99
8585;BME280;7180;52.742;11.420;2024-02-15T11:57:29;76303.84;;;-142.35;68.53
8585;BME280;7180;52.742;11.420;2024-02-15T12:00:02;76275.63;;;-142.35;67.91
8585;BME280;7180;52.742;11.420;2024-02-15T12:03:00;76265.53;;;-142.35;68.12
8585;BME280;7180;52.742;11.420;2024-02-15T12:05:44;76201.03;;;-142.35;67.30
8585;BME280;7180;52.742;11.420;2024-02-15T12:08:28;76233.28;;;-142.35;67.19
8585;BME280;7180;52.742;11.420;2024-02-15T12:11:14;76209.09;;;-142.35;66.95
8585;BME280;7180;52.742;11.420;2024-02-15T12:13:58;76277.63;;;-142.35;67.78
8585;BME280;7180;52.742;11.420;2024-02-15T12:16:42;76273.59;;;-142.35;67.99
8585;BME280;7180;52.742;11.420;2024-02-15T12:19:26;76253.44;;;-142.35;66.97
8585;BME280;7180;52.742;11.420;2024-02-15T12:21:52;76285.69;;;-142.35;67.60
8585;BME280;7180;52.742;11.420;2024-02-15T12:24:18;76237.31;;;-142.35;67.25
8585;BME280;7180;52.742;11.420;2024-02-15T12:26:46;76241.34;;;-142.35;67.25
8585;BME280;7180;52.742;11.420;2024-02-15T12:29:17;76237.31;;;-142.35;66.90
8585;BME280;7180;52.742;11.420;2024-02-15T12:31:43;76201.03;;;-142.35;66.78
8585;BME280;7180;52.742;11.420;2024-02-15T12:34:09;76233.28;;;-142.35;67.06
8585;BME280;7180;52.742;11.420;2024-02-15T12:36:35;76295.78;;;-142.35;67.32
8585;BME280;7180;52.742;11.420;2024-02-15T12:39:06;76301.81;;;-142.35;67.59
8585;BME280;7180;52.742;11.420;2024-02-15T12:41:48;76303.84;;;-142.35;67.27
8585;BME280;7180;52.742;11.420;2024-02-15T12:44:18;76390.50;;;-142.35;68.31
8585;BME280;7180;52.742;11.420;2024-02-15T12:46:53;76410.66;;;-142.35;68.28
8585;BME280;7180;52.742;11.420;2024-02-15T12:51:51;76444.94;;;-142.35;69.06
8585;BME280;7180;52.742;11.420;2024-02-15T12:54:22;76450.97;;;-142.35;69.05
8585;BME280;7180;52.742;11.420;2024-02-15T12:56:48;76467.09;;;-142.35;69.35
8585;BME280;7180;52.742;11.420;2024-02-15T12:59:14;76475.16;;;-142.35;69.20
8585;BME280;7180;52.742;11.420;2024-02-15T13:01:39;76497.34;;;-142.35;69.33